sensor_id;sensor_type;location;lat;lon;timestamp;temperature;humidity
16347;DHT22;8283;48.504;13.734;2023-03-19T00:02:35;11.50;52.80
16347;DHT22;8283;48.504;13.734;2023-03-19T00:05:20;11.50;52.80
16347;DHT22;8283;48.504;13.734;2023-03-19T00:08:05;11.60;52.90
16347;DHT22;8283;48.504;13.734;2023-03-19T00:10:49;11.40;52.90
16347;DHT22;8283;48.504;13.734;2023-03-19T00:13:35;11.30;52.80
16347;DHT22;8283;48.504;13.734;2023-03-19T00:16:19;11.30;52.90
16347;DHT22;8283;48.504;13.734;2023-03-19T00:19:04;11.30;52.90
16347;DHT22;8283;48.504;13.734;2023-03-19T00:21:48;11.20;52.90
16347;DHT22;8283;48.504;13.734;2023-03-19T00:24:33;11.20;53.00
16347;DHT22;8283;48.504;13.734;2023-03-19T00:27:17;11.10;53.00
16347;DHT22;8283;48.504;13.734;2023-03-19T00:30:03;11.10;53.10
16347;DHT22;8283;48.504;13.734;2023-03-19T00:32:49;11.10;53.20
16347;DHT22;8283;48.504;13.734;2023-03-19T00:35:33;11.00;53.20
16347;DHT22;8283;48.504;13.734;2023-03-19T00:38:18;11.00;53.20
16347;DHT22;8283;48.504;13.734;2023-03-19T00:41:03;11.00;53.40
16347;DHT22;8283;48.504;13.734;2023-03-19T00:43:56;10.90;53.40
16347;DHT22;8283;48.504;13.734;2023-03-19T00:46:40;10.90;53.70
16347;DHT22;8283;48.504;13.734;2023-03-19T00:49:25;10.80;53.30
16347;DHT22;8283;48.504;13.734;2023-03-19T00:52:10;10.80;53.40
16347;DHT22;8283;48.504;13.734;2023-03-19T00:54:54;10.80;53.40
16347;DHT22;8283;48.504;13.734;2023-03-19T00:57:38;10.70;53.40
16347;DHT22;8283;48.504;13.734;2023-03-19T01:00:23;10.70;53.50
16347;DHT22;8283;48.504;13.734;2023-03-19T01:03:08;10.70;53.60
16347;DHT22;8283;48.504;13.734;2023-03-19T01:05:52;10.60;53.60
16347;DHT22;8283;48.504;13.734;2023-03-19T01:08:37;10.70;53.70
16347;DHT22;8283;48.504;13.734;2023-03-19T01:11:22;10.70;53.80
16347;DHT22;8283;48.504;13.734;2023-03-19T01:14:07;10.60;53.80
16347;DHT22;8283;48.504;13.734;2023-03-19T01:16:52;10.60;53.80
16347;DHT22;8283;48.504;13.734;2023-03-19T01:19:36;10.60;53.90
16347;DHT22;8283;48.504;13.734;2023-03-19T01:22:20;10.60;53.80
16347;DHT22;8283;48.504;13.734;2023-03-19T01:25:12;10.60;53.80
16347;DHT22;8283;48.504;13.734;2023-03-19T01:28:00;10.60;54.00
16347;DHT22;8283;48.504;13.734;2023-03-19T01:30:45;10.50;54.00
16347;DHT22;8283;48.504;13.734;2023-03-19T01:33:52;10.50;54.10
16347;DHT22;8283;48.504;13.734;2023-03-19T01:36:46;10.50;54.00
16347;DHT22;8283;48.504;13.734;2023-03-19T01:39:34;9.70;53.60
16347;DHT22;8283;48.504;13.734;2023-03-19T01:42:22;10.40;53.90
16347;DHT22;8283;48.504;13.734;2023-03-19T01:45:39;10.50;54.00
16347;DHT22;8283;48.504;13.734;2023-03-19T01:48:45;10.40;54.00
16347;DHT22;8283;48.504;13.734;2023-03-19T01:51:38;10.40;54.10
16347;DHT22;8283;48.504;13.734;2023-03-19T01:54:43;10.30;54.20
16347;DHT22;8283;48.504;13.734;2023-03-19T01:57:36;10.30;53.80
16347;DHT22;8283;48.504;13.734;2023-03-19T02:00:21;10.30;53.90
16347;DHT22;8283;48.504;13.734;2023-03-19T02:03:06;10.20;53.90
16347;DHT22;8283;48.504;13.734;2023-03-19T02:06:19;10.20;54.00
16347;DHT22;8283;48.504;13.734;2023-03-19T02:09:05;10.20;54.30
16347;DHT22;8283;48.504;13.734;2023-03-19T02:11:49;10.10;54.20
16347;DHT22;8283;48.504;13.734;2023-03-19T02:14:34;9.40;54.00
16347;DHT22;8283;48.504;13.734;2023-03-19T02:17:20;10.10;54.40
16347;DHT22;8283;48.504;13.734;2023-03-19T02:23:40;10.10;55.50
16347;DHT22;8283;48.504;13.734;2023-03-19T02:26:37;10.00;55.80
16347;DHT22;8283;48.504;13.734;2023-03-19T02:29:23;10.00;54.50
16347;DHT22;8283;48.504;13.734;2023-03-19T02:32:07;10.00;54.60
16347;DHT22;8283;48.504;13.734;2023-03-19T02:34:53;10.00;54.60
16347;DHT22;8283;48.504;13.734;2023-03-19T02:37:37;10.00;54.80
16347;DHT22;8283;48.504;13.734;2023-03-19T02:40:25;10.00;54.80
16347;DHT22;8283;48.504;13.734;2023-03-19T02:43:12;10.00;55.00
16347;DHT22;8283;48.504;13.734;2023-03-19T02:45:57;10.00;54.80
16347;DHT22;8283;48.504;13.734;2023-03-19T02:48:42;9.90;54.80
16347;DHT22;8283;48.504;13.734;2023-03-19T02:51:26;9.90;54.80
16347;DHT22;8283;48.504;13.734;2023-03-19T02:54:10;9.90;54.80
16347;DHT22;8283;48.504;13.734;2023-03-19T02:56:55;9.90;54.80
16347;DHT22;8283;48.504;13.734;2023-03-19T02:59:40;9.90;54.80
16347;DHT22;8283;48.504;13.734;2023-03-19T03:02:25;9.80;54.80
16347;DHT22;8283;48.504;13.734;2023-03-19T03:05:09;9.80;54.80
16347;DHT22;8283;48.504;13.734;2023-03-19T03:07:54;9.80;54.80
16347;DHT22;8283;48.504;13.734;2023-03-19T03:10:39;9.80;54.90
16347;DHT22;8283;48.504;13.734;2023-03-19T03:13:23;9.80;55.00
16347;DHT22;8283;48.504;13.734;2023-03-19T03:16:07;9.80;55.10
16347;DHT22;8283;48.504;13.734;2023-03-19T03:18:52;9.70;55.20
16347;DHT22;8283;48.504;13.734;2023-03-19T03:21:37;9.70;55.10
16347;DHT22;8283;48.504;13.734;2023-03-19T03:24:21;9.70;55.10
16347;DHT22;8283;48.504;13.734;2023-03-19T03:27:06;9.70;55.10
16347;DHT22;8283;48.504;13.734;2023-03-19T03:29:51;9.70;55.10
16347;DHT22;8283;48.504;13.734;2023-03-19T03:32:37;9.70;55.10
16347;DHT22;8283;48.504;13.734;2023-03-19T03:35:22;9.60;55.30
16347;DHT22;8283;48.504;13.734;2023-03-19T03:38:06;9.60;55.20
16347;DHT22;8283;48.504;13.734;2023-03-19T03:40:52;9.60;55.40
16347;DHT22;8283;48.504;13.734;2023-03-19T03:43:37;9.60;55.50
16347;DHT22;8283;48.504;13.734;2023-03-19T03:46:22;9.60;55.50
16347;DHT22;8283;48.504;13.734;2023-03-19T03:49:08;9.60;55.60
16347;DHT22;8283;48.504;13.734;2023-03-19T03:51:53;9.60;55.70
16347;DHT22;8283;48.504;13.734;2023-03-19T03:54:38;9.60;55.70
16347;DHT22;8283;48.504;13.734;2023-03-19T03:57:22;9.60;55.80
16347;DHT22;8283;48.504;13.734;2023-03-19T04:00:07;9.60;55.80
16347;DHT22;8283;48.504;13.734;2023-03-19T04:02:58;10.50;56.20
16347;DHT22;8283;48.504;13.734;2023-03-19T04:05:43;9.60;55.80
16347;DHT22;8283;48.504;13.734;2023-03-19T04:08:28;9.60;55.70
16347;DHT22;8283;48.504;13.734;2023-03-19T04:11:12;9.60;55.70
16347;DHT22;8283;48.504;13.734;2023-03-19T04:13:57;9.60;55.70
16347;DHT22;8283;48.504;13.734;2023-03-19T04:16:42;9.60;55.90
16347;DHT22;8283;48.504;13.734;2023-03-19T04:19:27;9.60;55.90
16347;DHT22;8283;48.504;13.734;2023-03-19T04:22:11;9.60;55.80
16347;DHT22;8283;48.504;13.734;2023-03-19T04:24:56;9.60;55.90
16347;DHT22;8283;48.504;13.734;2023-03-19T04:27:40;9.50;56.00
16347;DHT22;8283;48.504;13.734;2023-03-19T04:30:26;9.50;56.00
16347;DHT22;8283;48.504;13.734;2023-03-19T04:33:11;9.50;56.10
16347;DHT22;8283;48.504;13.734;2023-03-19T04:35:56;9.60;56.10
16347;DHT22;8283;48.504;13.734;2023-03-19T04:38:41;9.50;56.00
16347;DHT22;8283;48.504;13.734;2023-03-19T04:41:25;9.50;56.00
16347;DHT22;8283;48.504;13.734;2023-03-19T04:44:39;9.50;56.00
16347;DHT22;8283;48.504;13.734;2023-03-19T04:47:23;9.50;56.00
16347;DHT22;8283;48.504;13.734;2023-03-19T04:50:15;9.50;56.00
16347;DHT22;8283;48.504;13.734;2023-03-19T04:53:00;9.50;56.00
16347;DHT22;8283;48.504;13.734;2023-03-19T04:55:45;9.50;56.00
16347;DHT22;8283;48.504;13.734;2023-03-19T04:58:35;9.50;56.00
16347;DHT22;8283;48.504;13.734;2023-03-19T05:01:21;9.40;56.00
16347;DHT22;8283;48.504;13.734;2023-03-19T05:04:22;9.40;56.10
16347;DHT22;8283;48.504;13.734;2023-03-19T05:07:08;9.40;56.00
16347;DHT22;8283;48.504;13.734;2023-03-19T05:09:53;9.40;56.00
16347;DHT22;8283;48.504;13.734;2023-03-19T05:12:39;9.40;56.10
16347;DHT22;8283;48.504;13.734;2023-03-19T05:15:24;9.40;56.20
16347;DHT22;8283;48.504;13.734;2023-03-19T05:18:19;9.40;56.20
16347;DHT22;8283;48.504;13.734;2023-03-19T05:21:04;9.40;56.20
16347;DHT22;8283;48.504;13.734;2023-03-19T05:23:49;9.40;56.30
16347;DHT22;8283;48.504;13.734;2023-03-19T05:26:36;9.40;56.30
16347;DHT22;8283;48.504;13.734;2023-03-19T05:29:40;9.30;56.30
16347;DHT22;8283;48.504;13.734;2023-03-19T05:32:45;9.40;56.40
16347;DHT22;8283;48.504;13.734;2023-03-19T05:35:38;9.30;56.40
16347;DHT22;8283;48.504;13.734;2023-03-19T05:38:31;9.40;56.50
16347;DHT22;8283;48.504;13.734;2023-03-19T05:41:22;9.40;56.50
16347;DHT22;8283;48.504;13.734;2023-03-19T05:44:18;9.40;56.50
16347;DHT22;8283;48.504;13.734;2023-03-19T05:47:17;9.40;56.60
16347;DHT22;8283;48.504;13.734;2023-03-19T05:50:08;9.40;56.70
16347;DHT22;8283;48.504;13.734;2023-03-19T05:52:53;9.40;56.70
16347;DHT22;8283;48.504;13.734;2023-03-19T05:55:38;9.40;56.80
16347;DHT22;8283;48.504;13.734;2023-03-19T05:58:26;9.50;57.00
16347;DHT22;8283;48.504;13.734;2023-03-19T06:01:12;9.50;57.10
16347;DHT22;8283;48.504;13.734;2023-03-19T06:03:57;9.50;57.10
16347;DHT22;8283;48.504;13.734;2023-03-19T06:06:41;9.60;57.10
16347;DHT22;8283;48.504;13.734;2023-03-19T06:09:26;9.70;57.20
16347;DHT22;8283;48.504;13.734;2023-03-19T06:12:13;9.70;57.30
16347;DHT22;8283;48.504;13.734;2023-03-19T06:15:01;9.80;57.40
16347;DHT22;8283;48.504;13.734;2023-03-19T06:18:06;9.90;57.40
16347;DHT22;8283;48.504;13.734;2023-03-19T06:20:50;9.90;57.90
16347;DHT22;8283;48.504;13.734;2023-03-19T06:23:36;10.00;57.40
16347;DHT22;8283;48.504;13.734;2023-03-19T06:26:22;10.10;57.50
16347;DHT22;8283;48.504;13.734;2023-03-19T06:29:12;10.20;57.50
16347;DHT22;8283;48.504;13.734;2023-03-19T06:31:58;10.30;57.60
16347;DHT22;8283;48.504;13.734;2023-03-19T06:35:09;10.40;57.70
16347;DHT22;8283;48.504;13.734;2023-03-19T06:37:54;10.50;57.70
16347;DHT22;8283;48.504;13.734;2023-03-19T06:40:39;10.50;57.70
16347;DHT22;8283;48.504;13.734;2023-03-19T06:43:23;10.60;57.80
16347;DHT22;8283;48.504;13.734;2023-03-19T06:46:08;10.70;57.90
16347;DHT22;8283;48.504;13.734;2023-03-19T06:48:53;10.90;58.20
16347;DHT22;8283;48.504;13.734;2023-03-19T06:51:38;11.00;58.20
16347;DHT22;8283;48.504;13.734;2023-03-19T06:54:22;11.20;58.20
16347;DHT22;8283;48.504;13.734;2023-03-19T06:57:07;11.30;58.20
16347;DHT22;8283;48.504;13.734;2023-03-19T06:59:51;11.40;57.90
16347;DHT22;8283;48.504;13.734;2023-03-19T07:02:36;11.60;57.90
16347;DHT22;8283;48.504;13.734;2023-03-19T07:05:20;11.70;57.80
16347;DHT22;8283;48.504;13.734;2023-03-19T07:08:05;11.80;57.70
16347;DHT22;8283;48.504;13.734;2023-03-19T07:11:05;11.90;57.70
16347;DHT22;8283;48.504;13.734;2023-03-19T07:13:50;12.00;58.00
16347;DHT22;8283;48.504;13.734;2023-03-19T07:16:34;12.00;57.40
16347;DHT22;8283;48.504;13.734;2023-03-19T07:19:19;12.10;57.40
16347;DHT22;8283;48.504;13.734;2023-03-19T07:22:03;12.20;57.40
16347;DHT22;8283;48.504;13.734;2023-03-19T07:24:49;12.20;57.40
16347;DHT22;8283;48.504;13.734;2023-03-19T07:27:34;12.30;57.50
16347;DHT22;8283;48.504;13.734;2023-03-19T07:30:19;12.40;57.50
16347;DHT22;8283;48.504;13.734;2023-03-19T07:33:04;12.50;57.60
16347;DHT22;8283;48.504;13.734;2023-03-19T07:35:50;12.60;57.70
16347;DHT22;8283;48.504;13.734;2023-03-19T07:38:34;12.80;57.80
16347;DHT22;8283;48.504;13.734;2023-03-19T07:41:19;12.90;57.90
16347;DHT22;8283;48.504;13.734;2023-03-19T07:44:03;13.00;58.00
16347;DHT22;8283;48.504;13.734;2023-03-19T07:46:48;13.20;58.10
16347;DHT22;8283;48.504;13.734;2023-03-19T07:49:33;13.30;58.00
16347;DHT22;8283;48.504;13.734;2023-03-19T07:52:17;13.50;58.20
16347;DHT22;8283;48.504;13.734;2023-03-19T07:55:02;13.70;58.10
16347;DHT22;8283;48.504;13.734;2023-03-19T07:57:47;14.00;58.10
16347;DHT22;8283;48.504;13.734;2023-03-19T08:00:31;14.00;58.00
16347;DHT22;8283;48.504;13.734;2023-03-19T08:03:16;14.20;58.00
16347;DHT22;8283;48.504;13.734;2023-03-19T08:06:00;14.30;57.80
16347;DHT22;8283;48.504;13.734;2023-03-19T08:08:45;14.40;57.80
16347;DHT22;8283;48.504;13.734;2023-03-19T08:11:30;14.60;57.90
16347;DHT22;8283;48.504;13.734;2023-03-19T08:14:14;14.80;58.00
16347;DHT22;8283;48.504;13.734;2023-03-19T08:17:02;15.00;58.00
16347;DHT22;8283;48.504;13.734;2023-03-19T08:19:46;15.20;58.00
16347;DHT22;8283;48.504;13.734;2023-03-19T08:22:31;15.40;57.90
16347;DHT22;8283;48.504;13.734;2023-03-19T08:25:15;15.60;58.00
16347;DHT22;8283;48.504;13.734;2023-03-19T08:28:00;15.80;58.00
16347;DHT22;8283;48.504;13.734;2023-03-19T08:30:44;16.00;58.10
16347;DHT22;8283;48.504;13.734;2023-03-19T08:33:29;16.30;58.00
16347;DHT22;8283;48.504;13.734;2023-03-19T08:36:13;16.50;57.90
16347;DHT22;8283;48.504;13.734;2023-03-19T08:38:58;16.80;57.80
16347;DHT22;8283;48.504;13.734;2023-03-19T08:41:43;17.00;57.80
16347;DHT22;8283;48.504;13.734;2023-03-19T08:44:27;17.20;57.70
16347;DHT22;8283;48.504;13.734;2023-03-19T08:47:12;17.50;57.80
16347;DHT22;8283;48.504;13.734;2023-03-19T08:49:56;17.70;57.90
16347;DHT22;8283;48.504;13.734;2023-03-19T08:52:41;18.00;58.10
16347;DHT22;8283;48.504;13.734;2023-03-19T08:55:25;18.30;58.20
16347;DHT22;8283;48.504;13.734;2023-03-19T08:58:10;18.60;58.30
16347;DHT22;8283;48.504;13.734;2023-03-19T09:01:21;18.90;58.10
16347;DHT22;8283;48.504;13.734;2023-03-19T09:04:05;19.20;56.20
16347;DHT22;8283;48.504;13.734;2023-03-19T09:06:50;19.60;57.30
16347;DHT22;8283;48.504;13.734;2023-03-19T09:09:35;19.80;56.90
16347;DHT22;8283;48.504;13.734;2023-03-19T09:12:20;20.10;56.70
16347;DHT22;8283;48.504;13.734;2023-03-19T09:15:04;20.30;56.30
16347;DHT22;8283;48.504;13.734;2023-03-19T09:17:50;20.50;55.90
16347;DHT22;8283;48.504;13.734;2023-03-19T09:20:35;20.60;55.80
16347;DHT22;8283;48.504;13.734;2023-03-19T09:23:20;20.90;56.10
16347;DHT22;8283;48.504;13.734;2023-03-19T09:26:05;21.20;56.60
16347;DHT22;8283;48.504;13.734;2023-03-19T09:28:49;21.40;55.90
16347;DHT22;8283;48.504;13.734;2023-03-19T09:31:36;21.70;55.90
16347;DHT22;8283;48.504;13.734;2023-03-19T09:34:20;22.00;55.70
16347;DHT22;8283;48.504;13.734;2023-03-19T09:37:05;22.30;55.80
16347;DHT22;8283;48.504;13.734;2023-03-19T09:39:49;22.70;55.70
16347;DHT22;8283;48.504;13.734;2023-03-19T09:42:57;23.10;55.40
16347;DHT22;8283;48.504;13.734;2023-03-19T09:45:45;23.40;52.60
16347;DHT22;8283;48.504;13.734;2023-03-19T09:48:46;23.80;55.00
16347;DHT22;8283;48.504;13.734;2023-03-19T09:51:51;24.10;52.70
16347;DHT22;8283;48.504;13.734;2023-03-19T09:54:43;24.50;51.70
16347;DHT22;8283;48.504;13.734;2023-03-19T09:57:28;24.80;52.20
16347;DHT22;8283;48.504;13.734;2023-03-19T10:00:20;25.10;53.40
16347;DHT22;8283;48.504;13.734;2023-03-19T10:15:35;26.60;49.40
16347;DHT22;8283;48.504;13.734;2023-03-19T10:18:27;26.80;48.90
16347;DHT22;8283;48.504;13.734;2023-03-19T10:21:29;27.00;49.40
16347;DHT22;8283;48.504;13.734;2023-03-19T10:24:21;27.20;49.10
16347;DHT22;8283;48.504;13.734;2023-03-19T10:27:26;27.50;49.40
16347;DHT22;8283;48.504;13.734;2023-03-19T10:30:15;27.80;47.50
16347;DHT22;8283;48.504;13.734;2023-03-19T10:36:07;28.30;46.70
16347;DHT22;8283;48.504;13.734;2023-03-19T10:38:53;28.50;48.30
16347;DHT22;8283;48.504;13.734;2023-03-19T10:42:06;28.70;48.90
16347;DHT22;8283;48.504;13.734;2023-03-19T10:48:00;29.30;46.40
16347;DHT22;8283;48.504;13.734;2023-03-19T10:53:41;29.80;46.40
16347;DHT22;8283;48.504;13.734;2023-03-19T10:56:28;30.10;47.60
16347;DHT22;8283;48.504;13.734;2023-03-19T11:02:17;30.50;45.00
16347;DHT22;8283;48.504;13.734;2023-03-19T11:05:24;30.60;46.00
16347;DHT22;8283;48.504;13.734;2023-03-19T11:08:17;30.90;44.70
16347;DHT22;8283;48.504;13.734;2023-03-19T11:11:04;31.10;44.70
16347;DHT22;8283;48.504;13.734;2023-03-19T11:13:48;31.30;46.10
16347;DHT22;8283;48.504;13.734;2023-03-19T11:20:19;31.90;43.70
16347;DHT22;8283;48.504;13.734;2023-03-19T11:23:15;32.20;43.90
16347;DHT22;8283;48.504;13.734;2023-03-19T11:26:00;32.50;43.30
16347;DHT22;8283;48.504;13.734;2023-03-19T11:28:51;32.70;44.70
16347;DHT22;8283;48.504;13.734;2023-03-19T11:31:46;32.90;43.40
16347;DHT22;8283;48.504;13.734;2023-03-19T11:38:28;33.50;42.00
16347;DHT22;8283;48.504;13.734;2023-03-19T11:41:39;33.70;41.90
16347;DHT22;8283;48.504;13.734;2023-03-19T11:47:32;34.10;41.40
16347;DHT22;8283;48.504;13.734;2023-03-19T11:53:44;34.40;40.60
16347;DHT22;8283;48.504;13.734;2023-03-19T11:56:38;34.40;40.50
16347;DHT22;8283;48.504;13.734;2023-03-19T11:59:33;34.50;40.80
16347;DHT22;8283;48.504;13.734;2023-03-19T12:08:37;34.10;38.40
16347;DHT22;8283;48.504;13.734;2023-03-19T12:11:36;33.50;33.90
16347;DHT22;8283;48.504;13.734;2023-03-19T12:29:23;30.50;38.10
16347;DHT22;8283;48.504;13.734;2023-03-19T12:35:40;30.00;37.40
16347;DHT22;8283;48.504;13.734;2023-03-19T12:38:34;29.60;38.60
16347;DHT22;8283;48.504;13.734;2023-03-19T12:41:23;29.40;39.00
16347;DHT22;8283;48.504;13.734;2023-03-19T12:44:22;29.10;38.80
16347;DHT22;8283;48.504;13.734;2023-03-19T12:47:16;28.90;38.90
16347;DHT22;8283;48.504;13.734;2023-03-19T12:50:07;28.90;39.50
16347;DHT22;8283;48.504;13.734;2023-03-19T12:52:52;28.80;39.00
16347;DHT22;8283;48.504;13.734;2023-03-19T12:55:50;28.70;38.20
16347;DHT22;8283;48.504;13.734;2023-03-19T13:05:31;27.90;38.30
16347;DHT22;8283;48.504;13.734;2023-03-19T13:08:26;27.60;38.00
16347;DHT22;8283;48.504;13.734;2023-03-19T13:11:16;27.30;38.40
16347;DHT22;8283;48.504;13.734;2023-03-19T13:14:45;26.90;38.90
16347;DHT22;8283;48.504;13.734;2023-03-19T13:17:36;26.60;39.20
16347;DHT22;8283;48.504;13.734;2023-03-19T13:20:30;26.40;39.50
16347;DHT22;8283;48.504;13.734;2023-03-19T13:23:28;26.20;39.60
16347;DHT22;8283;48.504;13.734;2023-03-19T13:26:14;26.10;39.80
16347;DHT22;8283;48.504;13.734;2023-03-19T13:29:23;25.90;40.00
16347;DHT22;8283;48.504;13.734;2023-03-19T13:32:24;25.80;40.30
16347;DHT22;8283;48.504;13.734;2023-03-19T13:35:33;25.70;39.90
16347;DHT22;8283;48.504;13.734;2023-03-19T13:38:41;25.70;40.30
16347;DHT22;8283;48.504;13.734;2023-03-19T13:44:52;25.50;40.80
16347;DHT22;8283;48.504;13.734;2023-03-19T13:47:40;25.50;40.90
16347;DHT22;8283;48.504;13.734;2023-03-19T13:50:30;25.50;40.70
16347;DHT22;8283;48.504;13.734;2023-03-19T13:53:39;25.50;40.70
16347;DHT22;8283;48.504;13.734;2023-03-19T13:56:26;25.50;40.70
16347;DHT22;8283;48.504;13.734;2023-03-19T14:01:59;25.50;40.80
16347;DHT22;8283;48.504;13.734;2023-03-19T14:07:36;25.50;40.90
16347;DHT22;8283;48.504;13.734;2023-03-19T14:10:28;25.40;41.00
16347;DHT22;8283;48.504;13.734;2023-03-19T14:13:41;25.40;41.10
16347;DHT22;8283;48.504;13.734;2023-03-19T14:16:41;25.30;41.20
16347;DHT22;8283;48.504;13.734;2023-03-19T14:19:26;25.30;41.20
16347;DHT22;8283;48.504;13.734;2023-03-19T14:22:32;25.20;41.10
16347;DHT22;8283;48.504;13.734;2023-03-19T14:25:20;25.20;41.50
16347;DHT22;8283;48.504;13.734;2023-03-19T14:28:09;25.20;41.30
16347;DHT22;8283;48.504;13.734;2023-03-19T14:30:55;25.00;41.70
16347;DHT22;8283;48.504;13.734;2023-03-19T14:33:49;25.00;41.50
16347;DHT22;8283;48.504;13.734;2023-03-19T14:36:44;24.90;41.80
16347;DHT22;8283;48.504;13.734;2023-03-19T14:39:31;24.90;41.80
16347;DHT22;8283;48.504;13.734;2023-03-19T14:42:24;24.90;41.90
16347;DHT22;8283;48.504;13.734;2023-03-19T14:51:28;24.80;42.00
16347;DHT22;8283;48.504;13.734;2023-03-19T14:55:00;24.80;42.30
16347;DHT22;8283;48.504;13.734;2023-03-19T14:57:45;24.70;42.60
16347;DHT22;8283;48.504;13.734;2023-03-19T15:00:41;24.60;41.90
16347;DHT22;8283;48.504;13.734;2023-03-19T15:03:31;24.60;42.40
16347;DHT22;8283;48.504;13.734;2023-03-19T15:06:16;24.40;42.20
16347;DHT22;8283;48.504;13.734;2023-03-19T15:09:00;24.40;42.20
16347;DHT22;8283;48.504;13.734;2023-03-19T15:15:47;24.30;42.80
16347;DHT22;8283;48.504;13.734;2023-03-19T15:18:35;24.20;42.70
16347;DHT22;8283;48.504;13.734;2023-03-19T15:21:20;24.10;42.30
16347;DHT22;8283;48.504;13.734;2023-03-19T15:24:06;24.00;42.40
16347;DHT22;8283;48.504;13.734;2023-03-19T15:26:57;24.00;42.50
16347;DHT22;8283;48.504;13.734;2023-03-19T15:29:41;23.90;42.60
16347;DHT22;8283;48.504;13.734;2023-03-19T15:32:37;23.90;42.60
16347;DHT22;8283;48.504;13.734;2023-03-19T15:35:24;23.80;43.20
16347;DHT22;8283;48.504;13.734;2023-03-19T15:38:11;23.40;42.80
16347;DHT22;8283;48.504;13.734;2023-03-19T15:41:01;23.60;42.90
16347;DHT22;8283;48.504;13.734;2023-03-19T15:43:47;23.50;43.10
16347;DHT22;8283;48.504;13.734;2023-03-19T15:46:33;23.40;43.10
16347;DHT22;8283;48.504;13.734;2023-03-19T15:49:34;23.40;43.50
16347;DHT22;8283;48.504;13.734;2023-03-19T15:52:21;23.20;44.00
16347;DHT22;8283;48.504;13.734;2023-03-19T15:55:07;23.20;43.40
16347;DHT22;8283;48.504;13.734;2023-03-19T15:57:54;23.10;43.60
16347;DHT22;8283;48.504;13.734;2023-03-19T16:00:40;23.00;43.80
16347;DHT22;8283;48.504;13.734;2023-03-19T16:03:31;23.00;43.80
16347;DHT22;8283;48.504;13.734;2023-03-19T16:06:22;22.90;44.40
16347;DHT22;8283;48.504;13.734;2023-03-19T16:12:39;22.80;44.50
16347;DHT22;8283;48.504;13.734;2023-03-19T16:15:28;22.70;44.70
16347;DHT22;8283;48.504;13.734;2023-03-19T16:24:32;22.60;44.30
16347;DHT22;8283;48.504;13.734;2023-03-19T16:26:57;22.50;44.70
16347;DHT22;8283;48.504;13.734;2023-03-19T16:29:46;22.50;44.50
16347;DHT22;8283;48.504;13.734;2023-03-19T16:32:31;22.40;44.90
16347;DHT22;8283;48.504;13.734;2023-03-19T16:35:16;22.30;44.80
16347;DHT22;8283;48.504;13.734;2023-03-19T16:38:32;22.30;44.90
16347;DHT22;8283;48.504;13.734;2023-03-19T16:41:30;22.30;45.60
16347;DHT22;8283;48.504;13.734;2023-03-19T16:44:16;22.30;45.70
16347;DHT22;8283;48.504;13.734;2023-03-19T16:47:01;22.20;45.10
16347;DHT22;8283;48.504;13.734;2023-03-19T16:49:49;22.10;45.20
16347;DHT22;8283;48.504;13.734;2023-03-19T16:52:33;22.00;45.30
16347;DHT22;8283;48.504;13.734;2023-03-19T16:55:23;22.00;45.40
16347;DHT22;8283;48.504;13.734;2023-03-19T16:58:17;22.00;45.80
16347;DHT22;8283;48.504;13.734;2023-03-19T17:01:05;22.00;46.30
16347;DHT22;8283;48.504;13.734;2023-03-19T17:03:55;21.80;46.40
16347;DHT22;8283;48.504;13.734;2023-03-19T17:06:39;21.70;45.60
16347;DHT22;8283;48.504;13.734;2023-03-19T17:09:24;21.60;45.60
16347;DHT22;8283;48.504;13.734;2023-03-19T17:12:14;21.40;45.70
16347;DHT22;8283;48.504;13.734;2023-03-19T17:14:59;21.30;46.10
16347;DHT22;8283;48.504;13.734;2023-03-19T17:17:44;21.20;45.70
16347;DHT22;8283;48.504;13.734;2023-03-19T17:20:36;21.10;45.80
16347;DHT22;8283;48.504;13.734;2023-03-19T17:23:21;20.90;46.50
16347;DHT22;8283;48.504;13.734;2023-03-19T17:26:21;20.80;45.90
16347;DHT22;8283;48.504;13.734;2023-03-19T17:29:05;20.70;47.10
16347;DHT22;8283;48.504;13.734;2023-03-19T17:31:51;20.50;46.10
16347;DHT22;8283;48.504;13.734;2023-03-19T17:34:36;20.40;46.20
16347;DHT22;8283;48.504;13.734;2023-03-19T17:37:21;20.20;46.30
16347;DHT22;8283;48.504;13.734;2023-03-19T17:40:26;20.10;46.80
16347;DHT22;8283;48.504;13.734;2023-03-19T17:43:11;20.00;47.90
16347;DHT22;8283;48.504;13.734;2023-03-19T17:45:55;19.80;46.60
16347;DHT22;8283;48.504;13.734;2023-03-19T17:48:40;19.70;46.80
16347;DHT22;8283;48.504;13.734;2023-03-19T17:51:25;19.60;47.00
16347;DHT22;8283;48.504;13.734;2023-03-19T17:54:11;19.50;47.00
16347;DHT22;8283;48.504;13.734;2023-03-19T17:56:55;19.40;47.30
16347;DHT22;8283;48.504;13.734;2023-03-19T17:59:40;19.20;47.20
16347;DHT22;8283;48.504;13.734;2023-03-19T18:02:27;19.20;47.40
16347;DHT22;8283;48.504;13.734;2023-03-19T18:05:20;19.00;47.80
16347;DHT22;8283;48.504;13.734;2023-03-19T18:08:05;18.90;48.20
16347;DHT22;8283;48.504;13.734;2023-03-19T18:10:51;18.80;47.80
16347;DHT22;8283;48.504;13.734;2023-03-19T18:13:35;18.70;47.80
16347;DHT22;8283;48.504;13.734;2023-03-19T18:16:27;18.60;48.30
16347;DHT22;8283;48.504;13.734;2023-03-19T18:19:18;18.50;48.60
16347;DHT22;8283;48.504;13.734;2023-03-19T18:22:15;18.40;48.80
16347;DHT22;8283;48.504;13.734;2023-03-19T18:25:00;18.30;49.70
16347;DHT22;8283;48.504;13.734;2023-03-19T18:27:45;18.20;48.80
16347;DHT22;8283;48.504;13.734;2023-03-19T18:30:32;18.10;49.10
16347;DHT22;8283;48.504;13.734;2023-03-19T18:33:24;18.00;49.00
16347;DHT22;8283;48.504;13.734;2023-03-19T18:36:13;17.90;49.50
16347;DHT22;8283;48.504;13.734;2023-03-19T18:38:58;17.80;49.00
16347;DHT22;8283;48.504;13.734;2023-03-19T18:41:42;17.70;49.00
16347;DHT22;8283;48.504;13.734;2023-03-19T18:44:27;17.70;49.10
16347;DHT22;8283;48.504;13.734;2023-03-19T18:47:13;17.60;49.20
16347;DHT22;8283;48.504;13.734;2023-03-19T18:49:59;16.90;49.10
16347;DHT22;8283;48.504;13.734;2023-03-19T18:52:46;17.50;49.30
16347;DHT22;8283;48.504;13.734;2023-03-19T18:55:31;17.40;49.50
16347;DHT22;8283;48.504;13.734;2023-03-19T18:58:27;17.40;49.50
16347;DHT22;8283;48.504;13.734;2023-03-19T19:01:14;17.30;50.60
16347;DHT22;8283;48.504;13.734;2023-03-19T19:03:59;17.80;50.00
16347;DHT22;8283;48.504;13.734;2023-03-19T19:06:44;17.20;49.60
16347;DHT22;8283;48.504;13.734;2023-03-19T19:09:28;17.10;49.80
16347;DHT22;8283;48.504;13.734;2023-03-19T19:12:15;17.10;49.90
16347;DHT22;8283;48.504;13.734;2023-03-19T19:15:02;17.10;50.20
16347;DHT22;8283;48.504;13.734;2023-03-19T19:17:48;17.00;50.20
16347;DHT22;8283;48.504;13.734;2023-03-19T19:20:32;17.00;50.30
16347;DHT22;8283;48.504;13.734;2023-03-19T19:23:17;16.90;50.70
16347;DHT22;8283;48.504;13.734;2023-03-19T19:26:02;16.90;50.70
16347;DHT22;8283;48.504;13.734;2023-03-19T19:28:47;16.80;50.60
16347;DHT22;8283;48.504;13.734;2023-03-19T19:31:32;16.80;50.70
16347;DHT22;8283;48.504;13.734;2023-03-19T19:34:17;16.70;50.90